createdAt,value
2023-03-02T00:00:47.988Z,9.52
2023-03-02T00:01:54.115Z,12.10
2023-03-02T00:02:56.662Z,10.53
2023-03-02T00:04:03.783Z,10.60
2023-03-02T00:05:08.003Z,10.00
2023-03-02T00:06:12.251Z,10.35
2023-03-02T00:07:19.947Z,9.25
2023-03-02T00:08:25.154Z,13.90
2023-03-02T00:09:28.649Z,11.23
2023-03-02T00:10:33.077Z,12.32
2023-03-02T00:11:38.044Z,12.90
2023-03-02T00:12:42.628Z,13.75
2023-03-02T00:13:45.630Z,11.70
2023-03-02T00:14:49.247Z,13.05
2023-03-02T00:15:51.881Z,9.52
2023-03-02T00:16:55.461Z,11.68
2023-03-02T00:17:58.053Z,12.30
2023-03-02T00:19:01.688Z,12.18
2023-03-02T00:20:09.919Z,16.73
2023-03-02T00:21:13.639Z,13.82
2023-03-02T00:22:16.141Z,16.17
2023-03-02T00:23:19.896Z,13.95
2023-03-02T00:24:25.285Z,14.93
2023-03-02T00:25:28.940Z,15.48
2023-03-02T00:26:34.913Z,13.90
2023-03-02T00:27:37.703Z,15.38
2023-03-02T00:28:41.298Z,13.63
2023-03-02T00:29:43.837Z,17.38
2023-03-02T00:30:47.416Z,16.50
2023-03-02T00:31:50.087Z,15.45
2023-03-02T00:32:53.730Z,16.35
2023-03-02T00:33:56.886Z,15.75
2023-03-02T00:35:01.062Z,15.37
2023-03-02T00:36:04.252Z,14.80
2023-03-02T00:37:07.881Z,14.77
2023-03-02T00:38:10.346Z,15.93
2023-03-02T00:39:14.293Z,16.35
2023-03-02T00:40:18.839Z,17.45
2023-03-02T00:41:22.902Z,20.05
2023-03-02T00:42:25.480Z,18.17
2023-03-02T00:43:29.174Z,16.38
2023-03-02T00:44:31.841Z,13.90
2023-03-02T00:45:35.339Z,14.63
2023-03-02T00:46:37.993Z,16.15
2023-03-02T00:47:42.530Z,14.43
2023-03-02T00:48:45.579Z,17.48
2023-03-02T00:49:58.226Z,14.00
2023-03-02T00:51:01.775Z,16.40
2023-03-02T00:52:05.483Z,16.83
2023-03-02T00:53:08.804Z,14.68
2023-03-02T00:54:12.929Z,18.20
2023-03-02T00:55:15.521Z,16.92
2023-03-02T00:56:20.881Z,17.63
2023-03-02T00:57:23.774Z,15.85
2023-03-02T00:58:27.808Z,18.20
2023-03-02T00:59:30.616Z,21.02
2023-03-02T01:00:35.749Z,18.80
2023-03-02T01:01:38.830Z,22.92
2023-03-02T01:02:44.611Z,18.95
2023-03-02T01:03:47.455Z,19.13
2023-03-02T01:04:53.326Z,21.73
2023-03-02T01:05:56.508Z,20.23
2023-03-02T01:07:01.624Z,21.97
2023-03-02T01:08:04.318Z,17.98
2023-03-02T01:09:08.134Z,17.83
2023-03-02T01:10:11.807Z,21.23
2023-03-02T01:11:16.382Z,19.00
2023-03-02T01:12:20.326Z,17.60
2023-03-02T01:13:23.779Z,20.33
2023-03-02T01:14:26.981Z,21.40
2023-03-02T01:15:30.757Z,22.88
2023-03-02T01:16:34.332Z,17.15
2023-03-02T01:17:39.971Z,19.47
2023-03-02T01:18:42.623Z,18.13
2023-03-02T01:19:46.286Z,20.35
2023-03-02T01:20:48.723Z,19.13
2023-03-02T01:21:53.405Z,23.88
2023-03-02T01:22:56.108Z,17.92
2023-03-02T01:23:59.934Z,15.65
2023-03-02T01:25:02.565Z,20.60
2023-03-02T01:26:07.687Z,16.00
2023-03-02T01:27:10.981Z,22.08
2023-03-02T01:28:15.936Z,17.83
2023-03-02T01:29:18.488Z,15.98
2023-03-02T01:30:22.166Z,14.82
2023-03-02T01:31:25.757Z,16.05
2023-03-02T01:32:29.376Z,15.35
2023-03-02T01:33:32.264Z,21.60
2023-03-02T01:34:35.855Z,16.63
2023-03-02T01:35:38.363Z,17.75
2023-03-02T01:36:45.668Z,18.00
2023-03-02T01:37:48.169Z,15.68
2023-03-02T01:38:52.147Z,16.93
2023-03-02T01:39:54.874Z,17.98
2023-03-02T01:40:59.773Z,16.90
2023-03-02T01:42:02.200Z,16.85
2023-03-02T01:43:13.967Z,16.90
2023-03-02T01:44:41.917Z,16.52
2023-03-02T01:45:55.219Z,17.00
2023-03-02T01:46:58.353Z,17.08
2023-03-02T01:48:02.897Z,12.88
2023-03-02T01:49:11.207Z,17.25
2023-03-02T01:50:21.243Z,15.67
2023-03-02T01:51:28.073Z,12.98
2023-03-02T01:52:38.404Z,15.55
2023-03-02T01:53:46.996Z,15.25
2023-03-02T01:54:56.161Z,12.43
2023-03-02T01:56:04.148Z,11.27
2023-03-02T01:57:09.204Z,11.35
2023-03-02T01:58:13.899Z,13.25
2023-03-02T01:59:23.958Z,9.85
2023-03-02T02:00:33.502Z,12.70
2023-03-02T02:01:39.340Z,11.23
2023-03-02T02:02:42.684Z,15.07
2023-03-02T02:03:49.990Z,12.32
2023-03-02T02:04:55.846Z,13.77
2023-03-02T02:06:09.512Z,14.45
2023-03-02T02:07:14.556Z,13.13
2023-03-02T02:08:17.088Z,13.45
2023-03-02T02:09:27.687Z,10.82
2023-03-02T02:10:31.583Z,13.60
2023-03-02T02:11:35.395Z,14.07
2023-03-02T02:12:38.149Z,15.17
2023-03-02T02:13:42.145Z,12.18
2023-03-02T02:14:46.011Z,11.70
2023-03-02T02:15:51.360Z,12.80
2023-03-02T02:16:53.924Z,12.30
2023-03-02T02:17:57.800Z,10.75
2023-03-02T02:19:02.070Z,13.18
2023-03-02T02:20:15.081Z,15.68
2023-03-02T02:21:20.261Z,14.05
2023-03-02T02:22:39.313Z,13.55
2023-03-02T02:23:51.122Z,11.30
2023-03-02T02:24:58.675Z,10.80
2023-03-02T02:26:24.837Z,10.38
2023-03-02T02:27:34.193Z,11.95
2023-03-02T02:28:42.392Z,14.15
2023-03-02T02:29:48.737Z,12.57
2023-03-02T02:30:59.404Z,15.93
2023-03-02T02:32:06.925Z,14.43
2023-03-02T02:33:17.054Z,13.98
2023-03-02T02:34:25.432Z,14.50
2023-03-02T02:35:30.567Z,14.47
2023-03-02T02:36:39.010Z,13.88
2023-03-02T02:37:45.635Z,13.82
2023-03-02T02:38:51.890Z,12.93
2023-03-02T02:39:55.118Z,10.38
2023-03-02T02:41:01.507Z,12.00
2023-03-02T02:42:13.182Z,11.77
2023-03-02T02:43:20.334Z,11.65
2023-03-02T02:44:22.983Z,12.52
2023-03-02T02:45:29.446Z,11.45
2023-03-02T02:46:33.325Z,11.80
2023-03-02T02:47:37.411Z,13.02
2023-03-02T02:48:40.432Z,13.10
2023-03-02T02:49:45.170Z,9.38
2023-03-02T02:50:48.182Z,9.38
2023-03-02T02:51:52.033Z,10.80
2023-03-02T02:52:57.751Z,10.60
2023-03-02T02:54:02.938Z,15.05
2023-03-02T02:55:06.845Z,12.07
2023-03-02T02:56:15.093Z,9.85
2023-03-02T02:57:24.786Z,9.60
2023-03-02T02:58:33.996Z,9.93
2023-03-02T02:59:42.839Z,9.93
2023-03-02T03:00:45.337Z,10.65
2023-03-02T03:01:49.865Z,12.65
2023-03-02T03:02:57.864Z,10.02
2023-03-02T03:04:04.257Z,7.68
2023-03-02T03:05:13.840Z,8.52
2023-03-02T03:06:21.124Z,8.43
2023-03-02T03:07:25.500Z,9.45
2023-03-02T03:08:58.023Z,8.57
2023-03-02T03:10:10.201Z,11.50
2023-03-02T03:11:14.859Z,12.68
2023-03-02T03:12:22.006Z,11.70
2023-03-02T03:13:26.677Z,10.85
2023-03-02T03:14:35.608Z,11.45
2023-03-02T03:15:38.886Z,11.57
2023-03-02T03:16:44.844Z,11.73
2023-03-02T03:17:55.347Z,10.88
2023-03-02T03:19:03.391Z,12.02
2023-03-02T03:20:09.558Z,12.30
2023-03-02T03:21:12.064Z,11.65
2023-03-02T03:22:17.757Z,10.88
2023-03-02T03:23:20.231Z,10.88
2023-03-02T03:24:25.283Z,8.68
2023-03-02T03:25:27.848Z,10.13
2023-03-02T03:26:31.692Z,11.00
2023-03-02T03:27:34.407Z,9.38
2023-03-02T03:28:39.389Z,9.43
2023-03-02T03:29:44.745Z,11.40
2023-03-02T03:30:48.523Z,12.47
2023-03-02T03:31:51.191Z,12.55
2023-03-02T03:32:54.653Z,8.07
2023-03-02T03:34:00.695Z,10.57
2023-03-02T03:35:08.650Z,10.10
2023-03-02T03:36:11.455Z,11.02
2023-03-02T03:37:18.010Z,9.98
2023-03-02T03:38:20.778Z,10.63
2023-03-02T03:39:24.295Z,10.35
2023-03-02T03:40:26.983Z,9.30
2023-03-02T03:41:30.522Z,8.27
2023-03-02T03:42:32.960Z,11.60
2023-03-02T03:43:36.642Z,9.88
2023-03-02T03:44:40.777Z,9.45
2023-03-02T03:45:44.489Z,10.13
2023-03-02T03:46:46.973Z,8.95
2023-03-02T03:47:50.384Z,9.25
2023-03-02T03:48:52.971Z,7.32
2023-03-02T03:49:56.827Z,7.65
2023-03-02T03:50:59.823Z,9.23
2023-03-02T03:52:03.712Z,8.13
2023-03-02T03:53:06.390Z,8.65
2023-03-02T03:54:10.842Z,11.02
2023-03-02T03:55:13.843Z,11.48
2023-03-02T03:56:17.925Z,9.60
2023-03-02T03:57:20.452Z,8.65
2023-03-02T03:58:24.346Z,11.30
2023-03-02T03:59:27.806Z,9.30
2023-03-02T04:00:32.893Z,7.70
2023-03-02T04:01:37.389Z,12.10
2023-03-02T04:02:41.033Z,9.57
2023-03-02T04:03:43.603Z,8.90
2023-03-02T04:04:47.239Z,10.38
2023-03-02T04:05:50.029Z,7.70
2023-03-02T04:06:53.848Z,8.13
2023-03-02T04:07:56.343Z,9.18
2023-03-02T04:09:04.759Z,8.88
2023-03-02T04:10:09.766Z,9.82
2023-03-02T04:11:13.308Z,8.75
2023-03-02T04:12:16.268Z,8.70
2023-03-02T04:13:19.798Z,9.87
2023-03-02T04:14:24.165Z,9.20
2023-03-02T04:15:27.851Z,7.70
2023-03-02T04:16:32.523Z,8.05
2023-03-02T04:17:37.052Z,9.50
2023-03-02T04:18:39.686Z,11.65
2023-03-02T04:19:43.340Z,9.40
2023-03-02T04:20:45.954Z,7.63
2023-03-02T04:21:52.524Z,9.32
2023-03-02T04:22:56.628Z,10.82
2023-03-02T04:24:00.574Z,9.63
2023-03-02T04:25:03.182Z,9.27
2023-03-02T04:26:06.974Z,7.57
2023-03-02T04:27:09.894Z,10.82
2023-03-02T04:28:14.592Z,7.70
2023-03-02T04:29:18.375Z,7.85
2023-03-02T04:30:25.307Z,11.02
2023-03-02T04:31:28.282Z,7.50
2023-03-02T04:32:33.465Z,8.07
2023-03-02T04:33:36.049Z,7.70
2023-03-02T04:34:40.012Z,9.20
2023-03-02T04:35:42.517Z,8.15
2023-03-02T04:36:46.677Z,7.88
2023-03-02T04:37:49.413Z,9.60
2023-03-02T04:38:53.297Z,8.88
2023-03-02T04:39:55.847Z,8.70
2023-03-02T04:41:00.401Z,9.52
2023-03-02T04:42:03.294Z,6.00
2023-03-02T04:43:06.956Z,8.63
2023-03-02T04:44:09.650Z,10.70
2023-03-02T04:45:14.613Z,7.97
2023-03-02T04:46:21.098Z,8.05
2023-03-02T04:47:24.634Z,7.88
2023-03-02T04:48:29.297Z,10.05
2023-03-02T04:49:33.017Z,6.10
2023-03-02T04:50:35.453Z,10.50
2023-03-02T04:51:41.726Z,8.23
2023-03-02T04:52:44.276Z,9.43
2023-03-02T04:53:47.996Z,8.18
2023-03-02T04:54:50.461Z,8.52
2023-03-02T04:55:54.165Z,9.87
2023-03-02T04:56:57.356Z,11.10
2023-03-02T04:58:01.024Z,9.63
2023-03-02T04:59:03.648Z,9.52
2023-03-02T05:00:09.956Z,12.27
2023-03-02T05:01:13.314Z,9.90
2023-03-02T05:02:17.142Z,10.48
2023-03-02T05:03:19.689Z,8.98
2023-03-02T05:04:25.135Z,11.50
2023-03-02T05:05:28.712Z,10.05
2023-03-02T05:06:32.732Z,10.63
2023-03-02T05:07:35.818Z,8.65
2023-03-02T05:08:39.527Z,11.35
2023-03-02T05:09:42.088Z,10.90
2023-03-02T05:10:45.742Z,10.85
2023-03-02T05:11:48.477Z,12.80
2023-03-02T05:13:04.900Z,10.95
2023-03-02T05:14:10.632Z,7.18
2023-03-02T05:15:14.344Z,11.65
2023-03-02T05:16:16.897Z,8.13
2023-03-02T05:17:20.572Z,8.10
2023-03-02T05:18:23.403Z,9.15
2023-03-02T05:19:28.478Z,10.52
2023-03-02T05:20:31.791Z,11.50
2023-03-02T05:21:35.798Z,10.27
2023-03-02T05:22:38.651Z,7.65
2023-03-02T05:23:42.991Z,9.88
2023-03-02T05:24:45.541Z,10.00
2023-03-02T05:25:49.037Z,11.88
2023-03-02T05:26:51.451Z,9.63
2023-03-02T05:27:55.010Z,9.37
2023-03-02T05:28:57.485Z,8.75
2023-03-02T05:30:00.985Z,9.73
2023-03-02T05:31:04.892Z,9.43
2023-03-02T05:32:08.493Z,8.10
2023-03-02T05:33:11.242Z,10.43
2023-03-02T05:34:17.395Z,8.45
2023-03-02T05:35:22.594Z,8.65
2023-03-02T05:36:26.294Z,9.90
2023-03-02T05:37:28.905Z,10.07
2023-03-02T05:38:32.930Z,9.43
2023-03-02T05:39:35.416Z,8.98
2023-03-02T05:40:39.626Z,8.95
2023-03-02T05:41:42.715Z,8.07
2023-03-02T05:42:48.739Z,8.38
2023-03-02T05:43:51.525Z,7.50
2023-03-02T05:44:55.085Z,6.80
2023-03-02T05:46:00.671Z,7.07
2023-03-02T05:47:04.537Z,8.18
2023-03-02T05:48:07.634Z,10.13
2023-03-02T05:49:11.375Z,9.13
2023-03-02T05:50:14.165Z,6.65
2023-03-02T05:51:19.160Z,9.30
2023-03-02T05:52:21.831Z,7.03
2023-03-02T05:53:25.556Z,6.70
2023-03-02T05:54:27.970Z,9.38
2023-03-02T05:55:36.941Z,8.45
2023-03-02T05:56:40.462Z,7.18
2023-03-02T05:57:43.031Z,14.02
2023-03-02T05:58:46.507Z,9.35
2023-03-02T05:59:51.054Z,8.30
2023-03-02T06:00:54.477Z,8.48
2023-03-02T06:01:59.094Z,7.20
2023-03-02T06:03:02.790Z,7.03
2023-03-02T06:04:05.636Z,7.97
2023-03-02T06:05:11.947Z,8.68
2023-03-02T06:06:14.605Z,7.97
2023-03-02T06:07:19.703Z,8.25
2023-03-02T06:08:22.522Z,9.38
2023-03-02T06:09:26.388Z,7.82
2023-03-02T06:10:29.354Z,7.40
2023-03-02T06:11:32.892Z,7.45
2023-03-02T06:12:35.410Z,8.93
2023-03-02T06:13:39.335Z,8.30
2023-03-02T06:14:41.965Z,8.95
2023-03-02T06:15:45.664Z,9.82
2023-03-02T06:16:49.520Z,10.05
2023-03-02T06:17:52.178Z,9.65
2023-03-02T06:18:55.666Z,7.47
2023-03-02T06:19:58.125Z,6.75
2023-03-02T06:21:01.788Z,7.83
2023-03-02T06:22:04.783Z,8.88
2023-03-02T06:23:09.885Z,9.15
2023-03-02T06:24:12.325Z,9.18
2023-03-02T06:25:18.252Z,8.70
2023-03-02T06:26:21.964Z,7.85
2023-03-02T06:27:24.327Z,9.00
2023-03-02T06:28:28.230Z,8.13
2023-03-02T06:29:30.727Z,6.32
2023-03-02T06:30:34.741Z,11.85
2023-03-02T06:31:37.419Z,9.87
2023-03-02T06:32:41.189Z,8.15
2023-03-02T06:33:43.699Z,10.02
2023-03-02T06:34:47.307Z,8.63
2023-03-02T06:35:50.609Z,8.38
2023-03-02T06:36:55.325Z,8.32
2023-03-02T06:37:57.761Z,7.65
2023-03-02T06:39:02.608Z,8.45
2023-03-02T06:40:08.878Z,9.25
2023-03-02T06:41:12.584Z,8.55
2023-03-02T06:42:15.021Z,11.40
2023-03-02T06:43:18.733Z,7.30
2023-03-02T06:44:21.239Z,10.75
2023-03-02T06:45:24.910Z,9.82
2023-03-02T06:46:27.761Z,11.25
2023-03-02T06:47:31.775Z,10.05
2023-03-02T06:48:34.267Z,10.90
2023-03-02T06:49:38.069Z,7.93
2023-03-02T06:50:40.472Z,9.30
2023-03-02T06:51:44.004Z,12.23
2023-03-02T06:52:46.653Z,11.97
2023-03-02T06:53:50.185Z,11.02
2023-03-02T06:54:54.367Z,9.80
2023-03-02T06:55:58.008Z,9.43
2023-03-02T06:57:00.493Z,11.60
2023-03-02T06:58:04.107Z,9.10
2023-03-02T06:59:06.610Z,12.50
2023-03-02T07:00:17.317Z,9.85
2023-03-02T07:01:20.067Z,14.20
2023-03-02T07:02:25.057Z,14.98
2023-03-02T07:03:28.930Z,15.93
2023-03-02T07:04:31.495Z,17.20
2023-03-02T07:05:36.057Z,13.05
2023-03-02T07:06:38.747Z,16.02
2023-03-02T07:07:42.736Z,13.85
2023-03-02T07:08:45.993Z,17.25
2023-03-02T07:09:49.685Z,18.00
2023-03-02T07:10:54.574Z,16.55
2023-03-02T07:11:57.073Z,16.02
2023-03-02T07:13:00.553Z,16.05
2023-03-02T07:14:03.568Z,16.37
2023-03-02T07:15:12.326Z,19.42
2023-03-02T07:16:16.020Z,14.00
2023-03-02T07:17:19.794Z,17.85
2023-03-02T07:18:22.202Z,16.85
2023-03-02T07:19:25.775Z,16.92
2023-03-02T07:20:28.190Z,15.25
2023-03-02T07:21:32.378Z,17.42
2023-03-02T07:22:36.173Z,17.50
2023-03-02T07:23:38.624Z,15.77
2023-03-02T07:24:44.055Z,19.90
2023-03-02T07:25:48.417Z,21.27
2023-03-02T07:26:52.306Z,17.10
2023-03-02T07:27:55.717Z,17.42
2023-03-02T07:28:59.639Z,15.68
2023-03-02T07:30:03.361Z,19.23
2023-03-02T07:31:06.388Z,15.30
2023-03-02T07:32:12.385Z,19.83
2023-03-02T07:33:15.462Z,14.50
2023-03-02T07:34:18.988Z,16.17
2023-03-02T07:35:22.485Z,15.40
2023-03-02T07:36:25.171Z,13.52
2023-03-02T07:37:28.790Z,13.40
2023-03-02T07:38:31.274Z,14.43
2023-03-02T07:39:34.812Z,15.95
2023-03-02T07:40:41.002Z,11.98
2023-03-02T07:41:45.574Z,10.38
2023-03-02T07:42:49.742Z,8.50
2023-03-02T07:43:54.130Z,9.95
2023-03-02T07:44:56.579Z,7.72
2023-03-02T07:46:01.036Z,9.70
2023-03-02T07:47:03.807Z,8.45
2023-03-02T07:48:08.031Z,7.55
2023-03-02T07:49:11.671Z,8.70
2023-03-02T07:50:14.171Z,7.53
2023-03-02T07:51:17.950Z,8.77
2023-03-02T07:52:21.488Z,6.32
2023-03-02T07:53:23.935Z,9.15
2023-03-02T07:54:30.706Z,8.20
2023-03-02T07:55:33.358Z,8.30
2023-03-02T07:56:36.969Z,9.47
2023-03-02T07:57:40.797Z,7.40
2023-03-02T07:58:45.898Z,8.38
2023-03-02T07:59:49.580Z,6.97
2023-03-02T08:00:52.005Z,9.95
2023-03-02T08:01:55.853Z,10.40
2023-03-02T08:02:59.470Z,7.57
2023-03-02T08:04:01.889Z,10.65
2023-03-02T08:05:05.938Z,8.60
2023-03-02T08:06:10.395Z,7.03
2023-03-02T08:07:13.934Z,9.23
2023-03-02T08:08:16.384Z,10.27
2023-03-02T08:09:19.908Z,8.48
2023-03-02T08:10:23.170Z,7.15
2023-03-02T08:11:26.698Z,7.30
2023-03-02T08:12:29.529Z,8.23
2023-03-02T08:13:33.082Z,8.07
2023-03-02T08:14:37.652Z,9.52
2023-03-02T08:15:41.634Z,7.43
2023-03-02T08:16:45.146Z,6.93
2023-03-02T08:17:47.556Z,10.63
2023-03-02T08:18:51.202Z,10.02
2023-03-02T08:19:53.656Z,9.23
2023-03-02T08:20:58.044Z,7.55
2023-03-02T08:22:01.368Z,7.43
2023-03-02T08:23:04.879Z,7.18
2023-03-02T08:24:08.142Z,7.70
2023-03-02T08:25:11.707Z,7.35
2023-03-02T08:26:17.483Z,10.05
2023-03-02T08:27:20.124Z,8.48
2023-03-02T08:28:24.508Z,8.50
2023-03-02T08:29:27.614Z,8.23
2023-03-02T08:30:32.657Z,10.32
2023-03-02T08:31:35.733Z,8.82
2023-03-02T08:32:39.560Z,8.82
2023-03-02T08:33:43.195Z,8.80
2023-03-02T08:34:45.643Z,8.18
2023-03-02T08:35:56.678Z,9.00
2023-03-02T08:37:00.814Z,7.38
2023-03-02T08:38:03.832Z,9.80
2023-03-02T08:39:07.513Z,7.80
2023-03-02T08:40:11.307Z,8.43
2023-03-02T08:41:18.268Z,7.70
2023-03-02T08:42:21.892Z,7.47
2023-03-02T08:43:27.184Z,8.00
2023-03-02T08:44:29.633Z,7.85
2023-03-02T08:45:36.190Z,8.93
2023-03-02T08:46:39.751Z,9.10
2023-03-02T08:47:42.083Z,8.02
2023-03-02T08:48:46.042Z,8.80
2023-03-02T08:49:50.751Z,7.33
2023-03-02T08:50:58.944Z,7.72
2023-03-02T08:52:01.430Z,7.28
2023-03-02T08:53:05.002Z,7.10
2023-03-02T08:54:08.814Z,7.57
2023-03-02T08:55:11.619Z,7.38
2023-03-02T08:56:20.325Z,8.98
2023-03-02T08:57:23.881Z,10.35
2023-03-02T08:58:26.391Z,7.65
2023-03-02T08:59:29.903Z,8.93
2023-03-02T09:00:34.818Z,7.40
2023-03-02T09:01:39.326Z,7.63
2023-03-02T09:02:41.964Z,7.57
2023-03-02T09:03:45.624Z,8.43
2023-03-02T09:04:49.078Z,7.95
2023-03-02T09:05:51.628Z,8.70
2023-03-02T09:06:55.166Z,11.35
2023-03-02T09:07:57.675Z,9.45
2023-03-02T09:09:01.335Z,9.88
2023-03-02T09:10:04.248Z,10.07
2023-03-02T09:11:08.190Z,8.83
2023-03-02T09:12:11.855Z,8.50
2023-03-02T09:13:14.345Z,11.18
2023-03-02T09:14:18.024Z,8.95
2023-03-02T09:15:20.430Z,9.32
2023-03-02T09:16:26.238Z,8.68
2023-03-02T09:17:29.802Z,9.13
2023-03-02T09:18:32.751Z,10.18
2023-03-02T09:19:44.292Z,9.77
2023-03-02T09:20:51.796Z,7.43
2023-03-02T09:21:54.149Z,8.53
2023-03-02T09:22:57.931Z,6.88
2023-03-02T09:24:00.486Z,9.75
2023-03-02T09:25:04.093Z,13.98
2023-03-02T09:26:06.707Z,10.10
2023-03-02T09:27:10.387Z,12.05
2023-03-02T09:28:12.865Z,8.70
2023-03-02T09:29:16.416Z,6.72
2023-03-02T09:30:19.024Z,9.90
2023-03-02T09:31:22.648Z,7.45
2023-03-02T09:32:27.751Z,7.20
2023-03-02T09:33:32.279Z,8.05
2023-03-02T09:34:36.036Z,6.55
2023-03-02T09:35:39.480Z,8.02
2023-03-02T09:36:43.073Z,9.73
2023-03-02T09:37:46.614Z,8.07
2023-03-02T09:38:50.691Z,6.90
2023-03-02T09:39:54.554Z,6.10
2023-03-02T09:41:23.344Z,6.18
2023-03-02T09:42:44.617Z,6.45
2023-03-02T09:43:58.168Z,6.17
2023-03-02T09:45:20.809Z,6.80
2023-03-02T09:46:29.056Z,7.07
2023-03-02T09:47:38.681Z,5.20
2023-03-02T09:48:49.907Z,6.57
2023-03-02T09:50:05.942Z,6.80
2023-03-02T09:51:22.330Z,7.28
2023-03-02T09:52:31.900Z,6.85
2023-03-02T09:53:44.036Z,6.07
2023-03-02T09:54:47.349Z,5.63
2023-03-02T09:55:55.145Z,5.70
2023-03-02T09:56:59.833Z,7.97
2023-03-02T09:58:05.130Z,5.57
2023-03-02T09:59:19.536Z,8.07
2023-03-02T10:00:30.347Z,5.97
2023-03-02T10:01:41.765Z,6.70
2023-03-02T10:02:49.033Z,7.05
2023-03-02T10:03:58.107Z,6.95
2023-03-02T10:05:11.285Z,5.20
2023-03-02T10:06:13.811Z,6.45
2023-03-02T10:07:20.645Z,6.27
2023-03-02T10:08:27.227Z,6.70
2023-03-02T10:09:30.531Z,6.82
2023-03-02T10:10:37.875Z,6.10
2023-03-02T10:11:56.202Z,7.07
2023-03-02T10:13:12.401Z,6.03
2023-03-02T10:14:20.813Z,7.55
2023-03-02T10:15:30.581Z,5.05
2023-03-02T10:16:38.559Z,4.88
2023-03-02T10:17:54.371Z,6.15
2023-03-02T10:19:08.206Z,7.57
2023-03-02T10:20:15.221Z,6.57
2023-03-02T10:21:23.852Z,6.30
2023-03-02T10:22:31.731Z,6.18
2023-03-02T10:23:47.513Z,5.80
2023-03-02T10:24:55.101Z,8.27
2023-03-02T10:26:06.466Z,5.97
2023-03-02T10:27:19.175Z,6.55
2023-03-02T10:28:24.249Z,5.95
2023-03-02T10:29:40.973Z,6.53
2023-03-02T10:30:45.369Z,6.07
2023-03-02T10:31:52.919Z,6.70
2023-03-02T10:33:00.848Z,6.05
2023-03-02T10:34:04.180Z,6.03
2023-03-02T10:35:15.736Z,7.35
2023-03-02T10:36:23.752Z,7.15
2023-03-02T10:37:31.873Z,8.25
2023-03-02T10:38:38.187Z,5.53
2023-03-02T10:39:41.779Z,6.70
2023-03-02T10:40:47.985Z,6.00
2023-03-02T10:41:54.990Z,7.00
2023-03-02T10:42:59.724Z,6.38
2023-03-02T10:44:07.661Z,7.28
2023-03-02T10:45:24.704Z,5.97
2023-03-02T10:46:27.935Z,8.35
2023-03-02T10:47:31.615Z,7.43
2023-03-02T10:48:49.365Z,6.43
2023-03-02T10:49:53.393Z,5.95
2023-03-02T10:50:58.239Z,6.55
2023-03-02T10:52:03.709Z,6.18
2023-03-02T10:53:08.483Z,5.87
2023-03-02T10:54:13.284Z,6.20
2023-03-02T10:55:17.682Z,6.57
2023-03-02T10:56:21.682Z,6.75
2023-03-02T10:57:31.732Z,6.25
2023-03-02T10:58:34.554Z,9.63
2023-03-02T10:59:45.122Z,5.68
2023-03-02T11:00:58.172Z,6.18
2023-03-02T11:02:00.721Z,5.93
2023-03-02T11:03:20.900Z,6.32
2023-03-02T11:04:24.755Z,6.53
2023-03-02T11:05:31.946Z,7.57
2023-03-02T11:06:36.102Z,6.03
2023-03-02T11:07:39.380Z,7.38
2023-03-02T11:08:43.063Z,7.15
2023-03-02T11:09:59.545Z,7.78
2023-03-02T11:11:05.295Z,8.32
2023-03-02T11:12:14.844Z,7.88
2023-03-02T11:13:20.685Z,7.03
2023-03-02T11:14:24.006Z,7.25
2023-03-02T11:15:31.207Z,9.80
2023-03-02T11:16:34.662Z,7.57
2023-03-02T11:17:39.563Z,8.80
2023-03-02T11:18:49.797Z,8.85
2023-03-02T11:19:53.660Z,7.13
2023-03-02T11:21:01.111Z,8.02
2023-03-02T11:22:14.227Z,6.95
2023-03-02T11:23:25.474Z,7.40
2023-03-02T11:24:34.672Z,7.22
2023-03-02T11:25:40.382Z,8.07
2023-03-02T11:26:50.182Z,8.33
2023-03-02T11:27:58.804Z,7.85
2023-03-02T11:29:06.319Z,8.90
2023-03-02T11:30:16.168Z,7.95
2023-03-02T11:31:27.997Z,10.05
2023-03-02T11:32:38.259Z,10.50
2023-03-02T11:33:46.477Z,8.55
2023-03-02T11:34:53.101Z,8.80
2023-03-02T11:36:04.306Z,9.25
2023-03-02T11:37:21.699Z,8.15
2023-03-02T11:38:27.397Z,8.93
2023-03-02T11:39:46.371Z,10.00
2023-03-02T11:41:00.065Z,10.65
2023-03-02T11:42:03.774Z,7.32
2023-03-02T11:43:07.912Z,8.95
2023-03-02T11:44:16.179Z,8.43
2023-03-02T11:45:23.966Z,9.60
2023-03-02T11:46:30.702Z,8.90
2023-03-02T11:47:35.524Z,10.20
2023-03-02T11:48:43.015Z,7.55
2023-03-02T11:49:51.295Z,10.57
2023-03-02T11:50:59.237Z,10.30
2023-03-02T11:52:03.111Z,7.82
2023-03-02T11:53:09.348Z,7.53
2023-03-02T11:54:29.005Z,8.63
2023-03-02T11:55:45.902Z,9.00
2023-03-02T11:56:48.261Z,9.00
2023-03-02T11:57:55.032Z,11.38
2023-03-02T11:59:00.262Z,8.73
2023-03-02T12:00:04.842Z,9.48
2023-03-02T12:01:11.155Z,12.00
2023-03-02T12:02:15.762Z,8.32
2023-03-02T12:03:25.919Z,8.75
2023-03-02T12:04:33.311Z,9.75
2023-03-02T12:05:40.157Z,10.40
2023-03-02T12:06:46.248Z,10.45
2023-03-02T12:07:59.331Z,13.23
2023-03-02T12:09:30.973Z,13.80
2023-03-02T12:10:39.068Z,9.75
2023-03-02T12:11:42.675Z,8.63
2023-03-02T12:12:59.527Z,12.10
2023-03-02T12:14:05.416Z,10.85
2023-03-02T12:15:38.271Z,9.70
2023-03-02T12:16:43.266Z,10.13
2023-03-02T12:17:45.575Z,11.40
2023-03-02T12:18:50.033Z,9.55
2023-03-02T12:19:55.493Z,11.02
2023-03-02T12:21:04.361Z,8.90
2023-03-02T12:22:12.572Z,9.20
2023-03-02T12:23:24.925Z,7.78
2023-03-02T12:24:31.019Z,9.23
2023-03-02T12:25:51.560Z,9.98
2023-03-02T12:27:03.948Z,9.73
2023-03-02T12:28:06.324Z,10.80
2023-03-02T12:29:24.988Z,9.98
2023-03-02T12:30:30.520Z,12.05
2023-03-02T12:31:45.422Z,9.43
2023-03-02T12:33:02.349Z,11.93
2023-03-02T12:34:25.837Z,12.13
2023-03-02T12:35:32.386Z,9.32
2023-03-02T12:36:44.289Z,9.43
2023-03-02T12:37:53.509Z,8.50
2023-03-02T12:39:12.039Z,10.43
2023-03-02T12:40:38.761Z,10.85
2023-03-02T12:42:00.746Z,15.48
2023-03-02T12:43:21.701Z,9.85
2023-03-02T12:44:38.762Z,11.40
2023-03-02T12:45:54.925Z,13.07
2023-03-02T12:47:03.030Z,11.38
2023-03-02T12:48:22.657Z,9.80
2023-03-02T12:49:36.431Z,11.23
2023-03-02T12:50:40.892Z,9.98
2023-03-02T12:51:54.189Z,9.63
2023-03-02T12:53:03.739Z,10.60
2023-03-02T12:54:08.828Z,10.40
2023-03-02T12:55:19.429Z,9.73
2023-03-02T12:56:24.592Z,11.63
2023-03-02T12:57:28.071Z,9.05
2023-03-02T12:58:32.751Z,11.13
2023-03-02T12:59:37.216Z,13.65
2023-03-02T13:00:41.027Z,10.53
2023-03-02T13:01:43.547Z,12.45
2023-03-02T13:02:49.656Z,10.45
2023-03-02T13:03:53.915Z,12.40
2023-03-02T13:04:58.900Z,9.77
2023-03-02T13:06:02.882Z,10.93
2023-03-02T13:07:06.714Z,11.30
2023-03-02T13:08:17.737Z,10.80
2023-03-02T13:09:21.645Z,9.82
2023-03-02T13:10:31.006Z,11.68
2023-03-02T13:11:36.235Z,12.00
2023-03-02T13:12:46.477Z,12.32
2023-03-02T13:13:50.046Z,14.90
2023-03-02T13:14:56.597Z,12.25
2023-03-02T13:16:00.433Z,12.30
2023-03-02T13:17:04.091Z,12.02
2023-03-02T13:18:07.680Z,11.50
2023-03-02T13:19:17.200Z,11.45
2023-03-02T13:20:22.936Z,11.00
2023-03-02T13:21:33.399Z,14.07
2023-03-02T13:22:36.713Z,12.73
2023-03-02T13:23:47.786Z,10.00
2023-03-02T13:24:57.982Z,10.55
2023-03-02T13:26:03.075Z,11.27
2023-03-02T13:27:07.115Z,12.15
2023-03-02T13:28:27.993Z,12.10
2023-03-02T13:29:31.946Z,14.20
2023-03-02T13:30:41.958Z,10.82
2023-03-02T13:31:44.381Z,11.75
2023-03-02T13:32:47.698Z,11.43
2023-03-02T13:33:51.060Z,12.57
2023-03-02T13:34:56.512Z,11.52
2023-03-02T13:35:59.449Z,11.73
2023-03-02T13:37:02.744Z,11.63
2023-03-02T13:38:15.253Z,10.40
2023-03-02T13:39:22.177Z,9.65
2023-03-02T13:40:35.753Z,13.20
2023-03-02T13:41:40.743Z,11.00
2023-03-02T13:42:43.296Z,10.80
2023-03-02T13:43:46.665Z,13.20
2023-03-02T13:44:49.457Z,11.13
2023-03-02T13:45:54.894Z,12.95
2023-03-02T13:46:58.724Z,10.82
2023-03-02T13:48:15.393Z,12.45
2023-03-02T13:49:28.779Z,11.50
2023-03-02T13:50:32.406Z,11.48
2023-03-02T13:51:39.284Z,11.65
2023-03-02T13:52:41.785Z,12.13
2023-03-02T13:53:54.654Z,10.60
2023-03-02T13:54:59.853Z,9.05
2023-03-02T13:56:03.473Z,10.43
2023-03-02T13:57:06.983Z,9.45
2023-03-02T13:58:15.053Z,11.13
2023-03-02T13:59:21.193Z,12.07
2023-03-02T14:00:30.720Z,13.30
2023-03-02T14:01:34.405Z,12.65
2023-03-02T14:02:36.998Z,12.57
2023-03-02T14:03:40.628Z,11.10
2023-03-02T14:04:43.410Z,11.52
2023-03-02T14:05:46.852Z,9.95
2023-03-02T14:06:50.643Z,11.93
2023-03-02T14:07:53.537Z,12.93
2023-03-02T14:08:56.992Z,12.38
2023-03-02T14:10:02.069Z,11.07
2023-03-02T14:11:06.546Z,12.40
2023-03-02T14:12:08.956Z,11.98
2023-03-02T14:13:16.556Z,12.88
2023-03-02T14:14:21.454Z,10.65
2023-03-02T14:15:25.344Z,13.55
2023-03-02T14:16:29.112Z,13.50
2023-03-02T14:17:31.499Z,10.70
2023-03-02T14:18:39.620Z,10.70
2023-03-02T14:19:41.921Z,12.32
2023-03-02T14:20:45.211Z,9.35